EETN/TLL METAR and TAF weather

Enter ICAO airport designator
Station Type Date Time Source
EETN METAR 2021/09/25 12:20 UTC NOAA

EETN 251220Z 30011KT 9999 FEW010 BKN038 11/09 Q1000 NOSIG


Station Type Date Time Source
EETN Decoded METAR 2021/09/25 12:20 UTC NOAA

Tallinn, Estonia (EETN) 59-24N 024-49E 34M
Sep 25, 2021 - 08:20 AM EDT / 2021.09.25 1220 UTC
Wind: from the WNW (300 degrees) at 13 MPH (11 KT):0
Visibility: greater than 7 mile(s):0
Sky conditions: mostly cloudy
Temperature: 51 F (11 C)
Dew Point: 48 F (9 C)
Relative Humidity: 87%
Pressure (altimeter): 29.53 in. Hg (1000 hPa)
ob: EETN 251220Z 30011KT 9999 FEW010 BKN038 11/09 Q1000 NOSIG
cycle: 12

Station Type Date Time Source
EETN TAF 2021/09/25 12:27 UTC NOAA

TAF TAF EETN 251125Z 2512/2612 31012KT 9999 BKN020 PROB40
TEMPO 2512/2515 BKN007 OVC020 PROB40
TEMPO 2519/2524 34015G25KT

Example: see airport list